sensor_id;sensor_type;location;lat;lon;timestamp;P1;durP1;ratioP1;P2;durP2;ratioP2
22186;SDS011;11259;52.146;12.844;2022-11-21T00:00:35;8.27;;;3.17;;
22186;SDS011;11259;52.146;12.844;2022-11-21T00:03:00;4.30;;;2.60;;
22186;SDS011;11259;52.146;12.844;2022-11-21T00:05:26;6.18;;;3.13;;
22186;SDS011;11259;52.146;12.844;2022-11-21T00:07:52;3.50;;;2.90;;
22186;SDS011;11259;52.146;12.844;2022-11-21T00:10:18;4.68;;;3.13;;
22186;SDS011;11259;52.146;12.844;2022-11-21T00:12:43;5.93;;;3.03;;
22186;SDS011;11259;52.146;12.844;2022-11-21T00:15:10;3.90;;;2.45;;
22186;SDS011;11259;52.146;12.844;2022-11-21T00:17:35;3.38;;;2.83;;
22186;SDS011;11259;52.146;12.844;2022-11-21T00:20:01;4.97;;;2.30;;
22186;SDS011;11259;52.146;12.844;2022-11-21T00:22:26;3.88;;;3.03;;
22186;SDS011;11259;52.146;12.844;2022-11-21T00:24:52;5.65;;;3.80;;
22186;SDS011;11259;52.146;12.844;2022-11-21T00:27:17;4.55;;;3.05;;
22186;SDS011;11259;52.146;12.844;2022-11-21T00:29:42;8.65;;;3.08;;
22186;SDS011;11259;52.146;12.844;2022-11-21T00:32:09;4.90;;;4.45;;
22186;SDS011;11259;52.146;12.844;2022-11-21T00:34:34;4.13;;;3.65;;
22186;SDS011;11259;52.146;12.844;2022-11-21T00:36:59;4.68;;;3.58;;
22186;SDS011;11259;52.146;12.844;2022-11-21T00:39:25;8.38;;;3.15;;
22186;SDS011;11259;52.146;12.844;2022-11-21T00:41:50;7.38;;;3.75;;
22186;SDS011;11259;52.146;12.844;2022-11-21T00:44:16;3.80;;;2.83;;
22186;SDS011;11259;52.146;12.844;2022-11-21T00:46:41;6.60;;;3.25;;
22186;SDS011;11259;52.146;12.844;2022-11-21T00:49:08;4.32;;;3.35;;
22186;SDS011;11259;52.146;12.844;2022-11-21T00:51:33;10.43;;;3.17;;
22186;SDS011;11259;52.146;12.844;2022-11-21T00:53:58;4.25;;;2.33;;
22186;SDS011;11259;52.146;12.844;2022-11-21T00:56:23;3.88;;;3.38;;
22186;SDS011;11259;52.146;12.844;2022-11-21T00:58:49;3.35;;;2.58;;
22186;SDS011;11259;52.146;12.844;2022-11-21T01:01:14;4.00;;;1.92;;
22186;SDS011;11259;52.146;12.844;2022-11-21T01:03:40;3.38;;;2.67;;
22186;SDS011;11259;52.146;12.844;2022-11-21T01:06:07;6.40;;;2.78;;
22186;SDS011;11259;52.146;12.844;2022-11-21T01:08:34;7.40;;;3.67;;
22186;SDS011;11259;52.146;12.844;2022-11-21T01:11:01;5.00;;;3.03;;
22186;SDS011;11259;52.146;12.844;2022-11-21T01:13:27;4.35;;;2.88;;
22186;SDS011;11259;52.146;12.844;2022-11-21T01:15:52;3.83;;;3.08;;
22186;SDS011;11259;52.146;12.844;2022-11-21T01:18:17;5.80;;;3.67;;
22186;SDS011;11259;52.146;12.844;2022-11-21T01:20:43;6.88;;;4.45;;
22186;SDS011;11259;52.146;12.844;2022-11-21T01:23:09;4.53;;;3.38;;
22186;SDS011;11259;52.146;12.844;2022-11-21T01:25:35;4.45;;;2.67;;
22186;SDS011;11259;52.146;12.844;2022-11-21T01:28:00;5.05;;;3.05;;
22186;SDS011;11259;52.146;12.844;2022-11-21T01:30:26;3.63;;;2.47;;
22186;SDS011;11259;52.146;12.844;2022-11-21T01:32:51;6.68;;;2.85;;
22186;SDS011;11259;52.146;12.844;2022-11-21T01:35:16;7.78;;;4.03;;
22186;SDS011;11259;52.146;12.844;2022-11-21T01:37:43;4.40;;;3.13;;
22186;SDS011;11259;52.146;12.844;2022-11-21T01:40:12;5.15;;;3.17;;
22186;SDS011;11259;52.146;12.844;2022-11-21T01:42:54;6.13;;;3.83;;
22186;SDS011;11259;52.146;12.844;2022-11-21T01:48:17;3.75;;;2.80;;
22186;SDS011;11259;52.146;12.844;2022-11-21T01:50:43;3.97;;;2.60;;
22186;SDS011;11259;52.146;12.844;2022-11-21T01:53:08;6.40;;;2.63;;
22186;SDS011;11259;52.146;12.844;2022-11-21T01:55:35;8.27;;;3.10;;
22186;SDS011;11259;52.146;12.844;2022-11-21T01:58:00;6.10;;;4.13;;
22186;SDS011;11259;52.146;12.844;2022-11-21T02:00:26;5.53;;;2.92;;
22186;SDS011;11259;52.146;12.844;2022-11-21T02:02:54;5.15;;;2.80;;
22186;SDS011;11259;52.146;12.844;2022-11-21T02:05:22;4.65;;;3.35;;
22186;SDS011;11259;52.146;12.844;2022-11-21T02:07:49;3.58;;;2.50;;
22186;SDS011;11259;52.146;12.844;2022-11-21T02:10:16;5.57;;;3.05;;
22186;SDS011;11259;52.146;12.844;2022-11-21T02:12:43;5.65;;;3.15;;
22186;SDS011;11259;52.146;12.844;2022-11-21T02:15:11;4.05;;;2.90;;
22186;SDS011;11259;52.146;12.844;2022-11-21T02:17:36;3.88;;;2.28;;
22186;SDS011;11259;52.146;12.844;2022-11-21T02:20:03;6.63;;;2.35;;
22186;SDS011;11259;52.146;12.844;2022-11-21T02:22:31;4.00;;;2.53;;
22186;SDS011;11259;52.146;12.844;2022-11-21T02:25:04;8.25;;;3.13;;
22186;SDS011;11259;52.146;12.844;2022-11-21T02:27:30;3.42;;;1.92;;
22186;SDS011;11259;52.146;12.844;2022-11-21T02:29:56;6.93;;;3.10;;
22186;SDS011;11259;52.146;12.844;2022-11-21T02:32:22;7.60;;;3.55;;
22186;SDS011;11259;52.146;12.844;2022-11-21T02:34:48;4.65;;;2.80;;
22186;SDS011;11259;52.146;12.844;2022-11-21T02:37:14;3.95;;;3.25;;
22186;SDS011;11259;52.146;12.844;2022-11-21T02:39:40;6.50;;;3.53;;
22186;SDS011;11259;52.146;12.844;2022-11-21T02:42:08;4.90;;;3.28;;
22186;SDS011;11259;52.146;12.844;2022-11-21T02:44:37;4.82;;;3.70;;
22186;SDS011;11259;52.146;12.844;2022-11-21T02:47:05;6.35;;;3.05;;
22186;SDS011;11259;52.146;12.844;2022-11-21T02:49:47;6.75;;;3.33;;
22186;SDS011;11259;52.146;12.844;2022-11-21T02:52:15;8.02;;;3.50;;
22186;SDS011;11259;52.146;12.844;2022-11-21T02:54:40;5.05;;;3.67;;
22186;SDS011;11259;52.146;12.844;2022-11-21T02:57:07;4.55;;;3.45;;
22186;SDS011;11259;52.146;12.844;2022-11-21T02:59:32;7.82;;;3.78;;
22186;SDS011;11259;52.146;12.844;2022-11-21T03:01:58;7.43;;;3.35;;
22186;SDS011;11259;52.146;12.844;2022-11-21T03:04:23;3.13;;;2.72;;
22186;SDS011;11259;52.146;12.844;2022-11-21T03:06:51;5.25;;;3.42;;
22186;SDS011;11259;52.146;12.844;2022-11-21T03:09:16;5.82;;;3.70;;
22186;SDS011;11259;52.146;12.844;2022-11-21T03:11:42;4.97;;;2.58;;
22186;SDS011;11259;52.146;12.844;2022-11-21T03:14:08;6.00;;;3.13;;
22186;SDS011;11259;52.146;12.844;2022-11-21T03:16:34;7.38;;;3.58;;
22186;SDS011;11259;52.146;12.844;2022-11-21T03:18:59;4.07;;;3.05;;
22186;SDS011;11259;52.146;12.844;2022-11-21T03:21:25;4.57;;;2.90;;
22186;SDS011;11259;52.146;12.844;2022-11-21T03:23:50;7.32;;;3.90;;
22186;SDS011;11259;52.146;12.844;2022-11-21T03:26:15;4.93;;;2.65;;
22186;SDS011;11259;52.146;12.844;2022-11-21T03:28:41;5.38;;;3.55;;
22186;SDS011;11259;52.146;12.844;2022-11-21T03:31:07;7.80;;;3.03;;
22186;SDS011;11259;52.146;12.844;2022-11-21T03:33:33;6.65;;;3.10;;
22186;SDS011;11259;52.146;12.844;2022-11-21T03:35:58;4.55;;;3.28;;
22186;SDS011;11259;52.146;12.844;2022-11-21T03:38:23;6.15;;;3.67;;
22186;SDS011;11259;52.146;12.844;2022-11-21T03:40:49;5.03;;;2.72;;
22186;SDS011;11259;52.146;12.844;2022-11-21T03:43:14;4.22;;;3.30;;
22186;SDS011;11259;52.146;12.844;2022-11-21T03:45:39;4.43;;;2.78;;
22186;SDS011;11259;52.146;12.844;2022-11-21T03:48:06;7.53;;;3.60;;
22186;SDS011;11259;52.146;12.844;2022-11-21T03:50:31;6.18;;;3.88;;
22186;SDS011;11259;52.146;12.844;2022-11-21T03:52:57;6.75;;;3.13;;
22186;SDS011;11259;52.146;12.844;2022-11-21T03:55:22;6.07;;;3.17;;
22186;SDS011;11259;52.146;12.844;2022-11-21T03:57:47;5.32;;;3.08;;
22186;SDS011;11259;52.146;12.844;2022-11-21T04:00:13;6.63;;;3.25;;
22186;SDS011;11259;52.146;12.844;2022-11-21T04:02:40;6.75;;;2.72;;
22186;SDS011;11259;52.146;12.844;2022-11-21T04:05:07;6.53;;;3.90;;
22186;SDS011;11259;52.146;12.844;2022-11-21T04:07:32;7.55;;;3.92;;
22186;SDS011;11259;52.146;12.844;2022-11-21T04:09:58;3.78;;;3.42;;
22186;SDS011;11259;52.146;12.844;2022-11-21T04:12:23;4.82;;;2.65;;
22186;SDS011;11259;52.146;12.844;2022-11-21T04:14:48;7.30;;;4.00;;
22186;SDS011;11259;52.146;12.844;2022-11-21T04:17:14;8.63;;;4.22;;
22186;SDS011;11259;52.146;12.844;2022-11-21T04:19:39;4.03;;;2.65;;
22186;SDS011;11259;52.146;12.844;2022-11-21T04:22:06;4.05;;;2.95;;
22186;SDS011;11259;52.146;12.844;2022-11-21T04:24:31;9.35;;;4.30;;
22186;SDS011;11259;52.146;12.844;2022-11-21T04:26:56;5.82;;;3.15;;
22186;SDS011;11259;52.146;12.844;2022-11-21T04:29:22;4.57;;;3.08;;
22186;SDS011;11259;52.146;12.844;2022-11-21T04:31:47;5.65;;;3.25;;
22186;SDS011;11259;52.146;12.844;2022-11-21T04:34:12;3.70;;;2.70;;
22186;SDS011;11259;52.146;12.844;2022-11-21T04:36:38;7.47;;;3.00;;
22186;SDS011;11259;52.146;12.844;2022-11-21T04:39:05;3.83;;;3.10;;
22186;SDS011;11259;52.146;12.844;2022-11-21T04:41:30;6.07;;;4.10;;
22186;SDS011;11259;52.146;12.844;2022-11-21T04:43:55;6.18;;;2.85;;
22186;SDS011;11259;52.146;12.844;2022-11-21T04:46:21;5.50;;;3.47;;
22186;SDS011;11259;52.146;12.844;2022-11-21T04:48:46;5.50;;;3.97;;
22186;SDS011;11259;52.146;12.844;2022-11-21T04:51:11;3.40;;;2.83;;
22186;SDS011;11259;52.146;12.844;2022-11-21T04:53:37;7.75;;;3.78;;
22186;SDS011;11259;52.146;12.844;2022-11-21T04:56:04;5.35;;;3.45;;
22186;SDS011;11259;52.146;12.844;2022-11-21T04:58:30;3.42;;;2.80;;
22186;SDS011;11259;52.146;12.844;2022-11-21T05:00:55;7.05;;;3.72;;
22186;SDS011;11259;52.146;12.844;2022-11-21T05:03:21;5.22;;;4.18;;
22186;SDS011;11259;52.146;12.844;2022-11-21T05:05:46;4.75;;;3.25;;
22186;SDS011;11259;52.146;12.844;2022-11-21T05:08:12;4.63;;;3.22;;
22186;SDS011;11259;52.146;12.844;2022-11-21T05:10:37;5.47;;;3.83;;
22186;SDS011;11259;52.146;12.844;2022-11-21T05:13:04;7.45;;;3.00;;
22186;SDS011;11259;52.146;12.844;2022-11-21T05:15:29;5.35;;;3.70;;
22186;SDS011;11259;52.146;12.844;2022-11-21T05:17:57;3.50;;;3.17;;
22186;SDS011;11259;52.146;12.844;2022-11-21T05:20:22;7.88;;;3.05;;
22186;SDS011;11259;52.146;12.844;2022-11-21T05:22:50;4.93;;;3.28;;
22186;SDS011;11259;52.146;12.844;2022-11-21T05:25:15;7.55;;;3.65;;
22186;SDS011;11259;52.146;12.844;2022-11-21T05:27:40;5.10;;;3.80;;
22186;SDS011;11259;52.146;12.844;2022-11-21T05:30:08;3.47;;;3.17;;
22186;SDS011;11259;52.146;12.844;2022-11-21T05:32:34;3.85;;;2.63;;
22186;SDS011;11259;52.146;12.844;2022-11-21T05:35:00;4.90;;;2.70;;
22186;SDS011;11259;52.146;12.844;2022-11-21T05:37:25;3.45;;;2.90;;
22186;SDS011;11259;52.146;12.844;2022-11-21T05:39:50;4.57;;;2.83;;
22186;SDS011;11259;52.146;12.844;2022-11-21T05:42:16;6.28;;;3.63;;
22186;SDS011;11259;52.146;12.844;2022-11-21T05:44:41;6.30;;;3.50;;
22186;SDS011;11259;52.146;12.844;2022-11-21T05:47:08;4.63;;;2.78;;
22186;SDS011;11259;52.146;12.844;2022-11-21T05:49:33;4.93;;;3.50;;
22186;SDS011;11259;52.146;12.844;2022-11-21T05:51:58;7.30;;;3.88;;
22186;SDS011;11259;52.146;12.844;2022-11-21T05:54:24;3.83;;;2.88;;
22186;SDS011;11259;52.146;12.844;2022-11-21T05:56:49;5.70;;;3.47;;
22186;SDS011;11259;52.146;12.844;2022-11-21T05:59:14;4.72;;;3.17;;
22186;SDS011;11259;52.146;12.844;2022-11-21T06:04:45;4.88;;;2.72;;
22186;SDS011;11259;52.146;12.844;2022-11-21T06:07:10;4.28;;;3.17;;
22186;SDS011;11259;52.146;12.844;2022-11-21T06:09:35;6.32;;;3.97;;
22186;SDS011;11259;52.146;12.844;2022-11-21T06:12:01;4.85;;;3.22;;
22186;SDS011;11259;52.146;12.844;2022-11-21T06:14:26;5.63;;;3.05;;
22186;SDS011;11259;52.146;12.844;2022-11-21T06:16:51;8.40;;;4.35;;
22186;SDS011;11259;52.146;12.844;2022-11-21T06:19:17;6.78;;;3.35;;
22186;SDS011;11259;52.146;12.844;2022-11-21T06:21:43;6.18;;;3.60;;
22186;SDS011;11259;52.146;12.844;2022-11-21T06:24:09;8.68;;;4.78;;
22186;SDS011;11259;52.146;12.844;2022-11-21T06:26:34;5.65;;;3.90;;
22186;SDS011;11259;52.146;12.844;2022-11-21T06:28:59;8.80;;;3.90;;
22186;SDS011;11259;52.146;12.844;2022-11-21T06:31:25;7.65;;;3.03;;
22186;SDS011;11259;52.146;12.844;2022-11-21T06:33:51;9.90;;;3.83;;
22186;SDS011;11259;52.146;12.844;2022-11-21T06:36:17;5.82;;;3.92;;
22186;SDS011;11259;52.146;12.844;2022-11-21T06:38:44;6.55;;;3.85;;
22186;SDS011;11259;52.146;12.844;2022-11-21T06:41:10;7.78;;;3.78;;
22186;SDS011;11259;52.146;12.844;2022-11-21T06:43:37;6.20;;;3.67;;
22186;SDS011;11259;52.146;12.844;2022-11-21T06:46:03;4.72;;;3.60;;
22186;SDS011;11259;52.146;12.844;2022-11-21T06:48:29;4.55;;;2.95;;
22186;SDS011;11259;52.146;12.844;2022-11-21T06:50:54;4.50;;;3.00;;
22186;SDS011;11259;52.146;12.844;2022-11-21T06:53:19;7.75;;;3.85;;
22186;SDS011;11259;52.146;12.844;2022-11-21T06:55:46;5.80;;;3.38;;
22186;SDS011;11259;52.146;12.844;2022-11-21T06:58:11;5.97;;;3.25;;
22186;SDS011;11259;52.146;12.844;2022-11-21T07:00:37;9.05;;;3.35;;
22186;SDS011;11259;52.146;12.844;2022-11-21T07:03:02;3.17;;;2.60;;
22186;SDS011;11259;52.146;12.844;2022-11-21T07:05:28;7.75;;;4.28;;
22186;SDS011;11259;52.146;12.844;2022-11-21T07:07:56;6.03;;;4.32;;
22186;SDS011;11259;52.146;12.844;2022-11-21T07:10:22;6.18;;;3.15;;
22186;SDS011;11259;52.146;12.844;2022-11-21T07:12:48;5.57;;;2.97;;
22186;SDS011;11259;52.146;12.844;2022-11-21T07:15:14;3.22;;;2.83;;
22186;SDS011;11259;52.146;12.844;2022-11-21T07:17:39;5.72;;;3.85;;
22186;SDS011;11259;52.146;12.844;2022-11-21T07:20:05;9.48;;;4.47;;
22186;SDS011;11259;52.146;12.844;2022-11-21T07:22:31;9.27;;;5.72;;
22186;SDS011;11259;52.146;12.844;2022-11-21T07:24:56;9.85;;;4.18;;
22186;SDS011;11259;52.146;12.844;2022-11-21T07:27:21;7.65;;;4.35;;
22186;SDS011;11259;52.146;12.844;2022-11-21T07:29:48;10.68;;;4.80;;
22186;SDS011;11259;52.146;12.844;2022-11-21T07:32:13;9.00;;;5.25;;
22186;SDS011;11259;52.146;12.844;2022-11-21T07:34:39;8.18;;;4.60;;
22186;SDS011;11259;52.146;12.844;2022-11-21T07:37:04;7.40;;;4.15;;
22186;SDS011;11259;52.146;12.844;2022-11-21T07:39:30;5.55;;;3.13;;
22186;SDS011;11259;52.146;12.844;2022-11-21T07:41:55;6.60;;;4.15;;
22186;SDS011;11259;52.146;12.844;2022-11-21T07:44:20;7.55;;;4.43;;
22186;SDS011;11259;52.146;12.844;2022-11-21T07:46:47;6.90;;;4.22;;
22186;SDS011;11259;52.146;12.844;2022-11-21T07:49:12;5.22;;;4.30;;
22186;SDS011;11259;52.146;12.844;2022-11-21T07:51:37;4.65;;;2.88;;
22186;SDS011;11259;52.146;12.844;2022-11-21T07:54:03;7.03;;;3.90;;
22186;SDS011;11259;52.146;12.844;2022-11-21T07:56:28;5.63;;;3.28;;
22186;SDS011;11259;52.146;12.844;2022-11-21T07:58:54;5.38;;;3.15;;
22186;SDS011;11259;52.146;12.844;2022-11-21T08:01:19;7.63;;;4.82;;
22186;SDS011;11259;52.146;12.844;2022-11-21T08:03:46;10.40;;;5.45;;
22186;SDS011;11259;52.146;12.844;2022-11-21T08:06:11;9.25;;;4.53;;
22186;SDS011;11259;52.146;12.844;2022-11-21T08:08:37;5.93;;;3.78;;
22186;SDS011;11259;52.146;12.844;2022-11-21T08:11:03;5.18;;;3.92;;
22186;SDS011;11259;52.146;12.844;2022-11-21T08:13:28;6.82;;;3.92;;
22186;SDS011;11259;52.146;12.844;2022-11-21T08:15:54;5.57;;;3.85;;
22186;SDS011;11259;52.146;12.844;2022-11-21T08:18:19;2.85;;;2.55;;
22186;SDS011;11259;52.146;12.844;2022-11-21T08:20:46;4.15;;;3.33;;
22186;SDS011;11259;52.146;12.844;2022-11-21T08:23:11;5.55;;;4.05;;
22186;SDS011;11259;52.146;12.844;2022-11-21T08:25:37;4.70;;;2.38;;
22186;SDS011;11259;52.146;12.844;2022-11-21T08:28:03;7.65;;;3.88;;
22186;SDS011;11259;52.146;12.844;2022-11-21T08:30:29;3.47;;;3.20;;
22186;SDS011;11259;52.146;12.844;2022-11-21T08:32:56;6.03;;;3.03;;
22186;SDS011;11259;52.146;12.844;2022-11-21T08:35:21;7.60;;;4.47;;
22186;SDS011;11259;52.146;12.844;2022-11-21T08:37:48;5.10;;;2.70;;
22186;SDS011;11259;52.146;12.844;2022-11-21T08:40:14;6.82;;;3.47;;
22186;SDS011;11259;52.146;12.844;2022-11-21T08:42:39;4.80;;;2.67;;
22186;SDS011;11259;52.146;12.844;2022-11-21T08:45:05;6.32;;;3.97;;
22186;SDS011;11259;52.146;12.844;2022-11-21T08:47:31;5.45;;;3.58;;
22186;SDS011;11259;52.146;12.844;2022-11-21T08:49:56;4.28;;;3.05;;
22186;SDS011;11259;52.146;12.844;2022-11-21T08:52:22;4.05;;;3.00;;
22186;SDS011;11259;52.146;12.844;2022-11-21T08:54:48;5.18;;;3.67;;
22186;SDS011;11259;52.146;12.844;2022-11-21T08:57:14;5.80;;;3.90;;
22186;SDS011;11259;52.146;12.844;2022-11-21T08:59:39;4.90;;;3.30;;
22186;SDS011;11259;52.146;12.844;2022-11-21T09:02:04;4.88;;;3.85;;
22186;SDS011;11259;52.146;12.844;2022-11-21T09:04:30;7.63;;;4.20;;
22186;SDS011;11259;52.146;12.844;2022-11-21T09:06:55;4.00;;;3.03;;
22186;SDS011;11259;52.146;12.844;2022-11-21T09:09:20;5.88;;;3.28;;
22186;SDS011;11259;52.146;12.844;2022-11-21T09:11:47;3.90;;;3.58;;
22186;SDS011;11259;52.146;12.844;2022-11-21T09:14:13;5.43;;;3.00;;
22186;SDS011;11259;52.146;12.844;2022-11-21T09:16:38;4.03;;;3.25;;
22186;SDS011;11259;52.146;12.844;2022-11-21T09:19:03;4.60;;;2.30;;
22186;SDS011;11259;52.146;12.844;2022-11-21T09:21:29;7.53;;;3.72;;
22186;SDS011;11259;52.146;12.844;2022-11-21T09:23:54;6.65;;;4.50;;
22186;SDS011;11259;52.146;12.844;2022-11-21T09:26:20;4.85;;;3.38;;
22186;SDS011;11259;52.146;12.844;2022-11-21T09:28:46;5.63;;;4.07;;
22186;SDS011;11259;52.146;12.844;2022-11-21T09:31:12;4.90;;;3.17;;
22186;SDS011;11259;52.146;12.844;2022-11-21T09:33:37;6.20;;;2.70;;
22186;SDS011;11259;52.146;12.844;2022-11-21T09:36:02;5.43;;;3.53;;
22186;SDS011;11259;52.146;12.844;2022-11-21T09:38:28;5.03;;;3.20;;
22186;SDS011;11259;52.146;12.844;2022-11-21T09:41:07;7.00;;;3.13;;
22186;SDS011;11259;52.146;12.844;2022-11-21T09:43:38;4.07;;;2.55;;
22186;SDS011;11259;52.146;12.844;2022-11-21T09:46:09;5.07;;;3.58;;
22186;SDS011;11259;52.146;12.844;2022-11-21T09:48:38;7.50;;;3.88;;
22186;SDS011;11259;52.146;12.844;2022-11-21T09:51:09;6.85;;;3.60;;
22186;SDS011;11259;52.146;12.844;2022-11-21T09:53:36;7.43;;;4.00;;
22186;SDS011;11259;52.146;12.844;2022-11-21T09:56:05;4.43;;;2.85;;
22186;SDS011;11259;52.146;12.844;2022-11-21T09:58:34;8.00;;;4.03;;
22186;SDS011;11259;52.146;12.844;2022-11-21T10:01:02;11.70;;;6.53;;
22186;SDS011;11259;52.146;12.844;2022-11-21T10:03:30;6.75;;;4.82;;
22186;SDS011;11259;52.146;12.844;2022-11-21T10:05:58;6.07;;;4.57;;
22186;SDS011;11259;52.146;12.844;2022-11-21T10:08:27;5.88;;;3.90;;
22186;SDS011;11259;52.146;12.844;2022-11-21T10:11:06;6.18;;;5.43;;
22186;SDS011;11259;52.146;12.844;2022-11-21T10:13:38;9.18;;;4.47;;
22186;SDS011;11259;52.146;12.844;2022-11-21T10:16:12;5.72;;;4.32;;
22186;SDS011;11259;52.146;12.844;2022-11-21T10:18:55;6.95;;;4.30;;
22186;SDS011;11259;52.146;12.844;2022-11-21T10:21:42;5.20;;;3.58;;
22186;SDS011;11259;52.146;12.844;2022-11-21T10:24:21;6.32;;;3.25;;
22186;SDS011;11259;52.146;12.844;2022-11-21T10:26:55;7.28;;;3.10;;
22186;SDS011;11259;52.146;12.844;2022-11-21T10:29:23;6.80;;;5.18;;
22186;SDS011;11259;52.146;12.844;2022-11-21T10:31:51;4.65;;;2.72;;
22186;SDS011;11259;52.146;12.844;2022-11-21T10:34:21;6.75;;;4.28;;
22186;SDS011;11259;52.146;12.844;2022-11-21T10:36:49;8.63;;;4.45;;
22186;SDS011;11259;52.146;12.844;2022-11-21T10:39:19;5.85;;;4.55;;
22186;SDS011;11259;52.146;12.844;2022-11-21T10:41:49;5.20;;;3.78;;
22186;SDS011;11259;52.146;12.844;2022-11-21T10:44:19;5.10;;;3.63;;
22186;SDS011;11259;52.146;12.844;2022-11-21T10:46:55;7.53;;;4.07;;
22186;SDS011;11259;52.146;12.844;2022-11-21T10:49:22;8.48;;;4.95;;
22186;SDS011;11259;52.146;12.844;2022-11-21T10:51:49;5.78;;;3.60;;
22186;SDS011;11259;52.146;12.844;2022-11-21T10:54:16;3.33;;;2.90;;
22186;SDS011;11259;52.146;12.844;2022-11-21T10:56:41;8.80;;;3.83;;
22186;SDS011;11259;52.146;12.844;2022-11-21T10:59:10;8.43;;;4.15;;
22186;SDS011;11259;52.146;12.844;2022-11-21T11:01:37;4.43;;;2.55;;
22186;SDS011;11259;52.146;12.844;2022-11-21T11:04:06;7.50;;;4.03;;
22186;SDS011;11259;52.146;12.844;2022-11-21T11:06:41;8.27;;;4.70;;
22186;SDS011;11259;52.146;12.844;2022-11-21T11:09:12;4.82;;;3.38;;
22186;SDS011;11259;52.146;12.844;2022-11-21T11:11:46;9.70;;;3.97;;
22186;SDS011;11259;52.146;12.844;2022-11-21T11:14:12;11.27;;;3.95;;
22186;SDS011;11259;52.146;12.844;2022-11-21T11:16:41;8.00;;;4.50;;
22186;SDS011;11259;52.146;12.844;2022-11-21T11:19:15;3.30;;;2.95;;
22186;SDS011;11259;52.146;12.844;2022-11-21T11:21:43;3.97;;;3.33;;
22186;SDS011;11259;52.146;12.844;2022-11-21T11:24:19;6.13;;;3.53;;
22186;SDS011;11259;52.146;12.844;2022-11-21T11:26:49;3.53;;;2.65;;
22186;SDS011;11259;52.146;12.844;2022-11-21T11:29:16;11.15;;;4.65;;
22186;SDS011;11259;52.146;12.844;2022-11-21T11:31:43;4.68;;;2.83;;
22186;SDS011;11259;52.146;12.844;2022-11-21T11:34:13;6.72;;;3.00;;
22186;SDS011;11259;52.146;12.844;2022-11-21T11:36:41;3.10;;;2.20;;
22186;SDS011;11259;52.146;12.844;2022-11-21T11:39:20;3.70;;;2.45;;
22186;SDS011;11259;52.146;12.844;2022-11-21T11:41:54;3.65;;;2.70;;
22186;SDS011;11259;52.146;12.844;2022-11-21T11:44:41;3.58;;;2.90;;
22186;SDS011;11259;52.146;12.844;2022-11-21T11:47:13;5.70;;;3.42;;
22186;SDS011;11259;52.146;12.844;2022-11-21T11:49:42;4.68;;;3.75;;
22186;SDS011;11259;52.146;12.844;2022-11-21T11:52:18;6.13;;;3.00;;
22186;SDS011;11259;52.146;12.844;2022-11-21T11:54:46;8.73;;;4.10;;
22186;SDS011;11259;52.146;12.844;2022-11-21T11:57:12;5.22;;;3.35;;
22186;SDS011;11259;52.146;12.844;2022-11-21T11:59:38;5.63;;;3.20;;
22186;SDS011;11259;52.146;12.844;2022-11-21T12:02:05;4.78;;;3.38;;
22186;SDS011;11259;52.146;12.844;2022-11-21T12:04:39;6.03;;;3.00;;
22186;SDS011;11259;52.146;12.844;2022-11-21T12:07:08;7.30;;;4.72;;
22186;SDS011;11259;52.146;12.844;2022-11-21T12:09:40;7.20;;;4.22;;
22186;SDS011;11259;52.146;12.844;2022-11-21T12:12:09;5.00;;;2.55;;
22186;SDS011;11259;52.146;12.844;2022-11-21T12:14:47;5.28;;;2.75;;
22186;SDS011;11259;52.146;12.844;2022-11-21T12:17:18;5.68;;;4.05;;
22186;SDS011;11259;52.146;12.844;2022-11-21T12:19:48;7.60;;;3.33;;
22186;SDS011;11259;52.146;12.844;2022-11-21T12:22:16;8.05;;;4.55;;
22186;SDS011;11259;52.146;12.844;2022-11-21T12:24:41;7.88;;;2.75;;
22186;SDS011;11259;52.146;12.844;2022-11-21T12:27:12;5.50;;;3.33;;
22186;SDS011;11259;52.146;12.844;2022-11-21T12:29:52;5.10;;;3.50;;
22186;SDS011;11259;52.146;12.844;2022-11-21T12:32:28;6.32;;;3.28;;
22186;SDS011;11259;52.146;12.844;2022-11-21T12:35:07;7.13;;;5.20;;
22186;SDS011;11259;52.146;12.844;2022-11-21T12:37:49;7.28;;;4.53;;
22186;SDS011;11259;52.146;12.844;2022-11-21T12:42:54;5.32;;;3.13;;
22186;SDS011;11259;52.146;12.844;2022-11-21T12:45:32;6.22;;;4.00;;
22186;SDS011;11259;52.146;12.844;2022-11-21T12:48:04;19.05;;;6.07;;
22186;SDS011;11259;52.146;12.844;2022-11-21T12:50:39;10.80;;;5.55;;
22186;SDS011;11259;52.146;12.844;2022-11-21T12:53:15;26.45;;;11.18;;
22186;SDS011;11259;52.146;12.844;2022-11-21T12:55:44;30.42;;;14.68;;
22186;SDS011;11259;52.146;12.844;2022-11-21T12:58:16;27.52;;;13.23;;
22186;SDS011;11259;52.146;12.844;2022-11-21T13:00:52;18.50;;;8.35;;
22186;SDS011;11259;52.146;12.844;2022-11-21T13:03:32;10.20;;;6.18;;
22186;SDS011;11259;52.146;12.844;2022-11-21T13:06:03;10.57;;;6.30;;
22186;SDS011;11259;52.146;12.844;2022-11-21T13:08:33;7.78;;;4.32;;
22186;SDS011;11259;52.146;12.844;2022-11-21T13:11:02;6.80;;;4.10;;
22186;SDS011;11259;52.146;12.844;2022-11-21T13:13:31;6.20;;;3.78;;
22186;SDS011;11259;52.146;12.844;2022-11-21T13:15:59;6.90;;;3.58;;
22186;SDS011;11259;52.146;12.844;2022-11-21T13:18:27;9.38;;;3.63;;
22186;SDS011;11259;52.146;12.844;2022-11-21T13:20:54;8.05;;;3.83;;
22186;SDS011;11259;52.146;12.844;2022-11-21T13:23:37;6.18;;;3.78;;
22186;SDS011;11259;52.146;12.844;2022-11-21T13:29:06;7.60;;;4.10;;
22186;SDS011;11259;52.146;12.844;2022-11-21T13:31:32;8.30;;;4.28;;
22186;SDS011;11259;52.146;12.844;2022-11-21T13:33:58;7.22;;;3.45;;
22186;SDS011;11259;52.146;12.844;2022-11-21T13:42:11;3.17;;;2.75;;
22186;SDS011;11259;52.146;12.844;2022-11-21T13:44:37;4.93;;;3.08;;
22186;SDS011;11259;52.146;12.844;2022-11-21T13:47:04;4.88;;;2.88;;
22186;SDS011;11259;52.146;12.844;2022-11-21T13:49:35;7.07;;;3.78;;
22186;SDS011;11259;52.146;12.844;2022-11-21T13:52:05;9.43;;;5.53;;
22186;SDS011;11259;52.146;12.844;2022-11-21T13:54:38;11.45;;;6.13;;
22186;SDS011;11259;52.146;12.844;2022-11-21T13:57:13;8.05;;;4.05;;
22186;SDS011;11259;52.146;12.844;2022-11-21T13:59:47;6.55;;;3.03;;
22186;SDS011;11259;52.146;12.844;2022-11-21T14:02:29;6.82;;;3.42;;
22186;SDS011;11259;52.146;12.844;2022-11-21T14:05:16;4.40;;;3.10;;
22186;SDS011;11259;52.146;12.844;2022-11-21T14:07:46;8.07;;;3.38;;
22186;SDS011;11259;52.146;12.844;2022-11-21T14:10:27;17.75;;;6.63;;
22186;SDS011;11259;52.146;12.844;2022-11-21T14:12:54;19.55;;;7.75;;
22186;SDS011;11259;52.146;12.844;2022-11-21T14:15:21;10.52;;;5.60;;
22186;SDS011;11259;52.146;12.844;2022-11-21T14:17:50;10.02;;;5.57;;
22186;SDS011;11259;52.146;12.844;2022-11-21T14:20:18;6.97;;;4.18;;
22186;SDS011;11259;52.146;12.844;2022-11-21T14:22:46;6.00;;;3.47;;
22186;SDS011;11259;52.146;12.844;2022-11-21T14:25:18;8.02;;;4.05;;
22186;SDS011;11259;52.146;12.844;2022-11-21T14:27:47;7.75;;;3.15;;
22186;SDS011;11259;52.146;12.844;2022-11-21T14:30:24;6.72;;;3.17;;
22186;SDS011;11259;52.146;12.844;2022-11-21T14:32:52;5.40;;;3.25;;
22186;SDS011;11259;52.146;12.844;2022-11-21T14:35:20;5.65;;;3.47;;
22186;SDS011;11259;52.146;12.844;2022-11-21T14:37:46;5.45;;;3.28;;
22186;SDS011;11259;52.146;12.844;2022-11-21T14:40:14;6.40;;;3.45;;
22186;SDS011;11259;52.146;12.844;2022-11-21T14:42:45;11.43;;;4.57;;
22186;SDS011;11259;52.146;12.844;2022-11-21T14:45:14;7.90;;;3.65;;
22186;SDS011;11259;52.146;12.844;2022-11-21T14:47:45;8.85;;;4.00;;
22186;SDS011;11259;52.146;12.844;2022-11-21T14:50:20;6.75;;;3.35;;
22186;SDS011;11259;52.146;12.844;2022-11-21T14:52:47;6.25;;;2.95;;